Time;durP1;ratioP1;P1;durP2;ratioP2;P2;SDS_P1;SDS_P2;PMS_P1;PMS_P2;Temp;Humidity;BMP_temperature;BMP_pressure;BME280_temperature;BME280_humidity;BME280_pressure;Samples;Min_cycle;Max_cycle;Signal;HPM_P1;HPM_P2
2021/12/19 00:01:05;;;;;;;10.35;4.28;;;6.50;99.90;;;;;;5040381;28;20053;-85
2021/12/19 00:03:50;;;;;;;10.57;3.85;;;8.10;99.90;;;;;;5044585;28;20045;-85
2021/12/19 00:09:01;;;;;;;7.85;3.63;;;8.60;99.90;;;;;;5049280;28;20111;-86
2021/12/19 00:11:29;;;;;;;13.18;3.63;;;8.50;99.90;;;;;;5046595;28;20521;-86
2021/12/19 00:13:56;;;;;;;8.48;3.58;;;8.50;99.90;;;;;;5046513;28;20474;-85
2021/12/19 00:16:23;;;;;;;9.43;4.13;;;8.80;99.90;;;;;;5039157;28;20053;-86
2021/12/19 00:18:50;;;;;;;10.77;4.03;;;8.40;99.90;;;;;;5044229;28;20134;-85
2021/12/19 00:21:17;;;;;;;13.95;5.20;;;8.00;99.90;;;;;;5041415;28;20046;-85
2021/12/19 00:23:44;;;;;;;10.27;3.88;;;8.60;99.90;;;;;;5045328;28;20049;-86
2021/12/19 00:26:11;;;;;;;12.95;4.38;;;8.40;99.90;;;;;;5043383;28;20041;-85
2021/12/19 00:28:37;;;;;;;13.07;3.65;;;7.60;99.90;;;;;;5050523;28;20044;-85
2021/12/19 00:31:03;;;;;;;10.68;3.25;;;8.80;99.90;;;;;;5049760;28;20493;-84
2021/12/19 00:33:29;;;;;;;9.00;2.90;;;8.60;99.90;;;;;;5040905;28;20087;-86
2021/12/19 00:35:55;;;;;;;12.13;3.47;;;8.50;99.90;;;;;;5050063;28;20049;-85
2021/12/19 00:38:21;;;;;;;10.60;3.03;;;8.00;99.90;;;;;;5050833;28;20037;-86
2021/12/19 00:40:48;;;;;;;8.35;2.58;;;9.00;99.90;;;;;;5050049;28;20057;-86
2021/12/19 00:43:24;;;;;;;5.75;1.80;;;8.80;99.90;;;;;;5042535;28;20067;-85
2021/12/19 00:45:52;;;;;;;6.75;1.75;;;8.80;99.90;;;;;;5040432;28;20595;-84
2021/12/19 00:48:18;;;;;;;6.65;1.98;;;9.20;99.90;;;;;;5032392;28;20128;-85
2021/12/19 00:50:44;;;;;;;5.00;1.40;;;7.30;99.90;;;;;;5032572;28;20124;-85
2021/12/19 00:53:10;;;;;;;2.60;1.00;;;8.20;99.90;;;;;;5033340;28;20045;-85
2021/12/19 00:55:37;;;;;;;4.68;0.80;;;8.60;99.90;;;;;;5034843;28;20137;-85
2021/12/19 00:58:04;;;;;;;4.53;0.80;;;8.40;99.90;;;;;;5037221;28;20056;-85
2021/12/19 01:00:32;;;;;;;2.72;1.02;;;8.80;99.90;;;;;;5036372;28;20057;-85
2021/12/19 01:03:00;;;;;;;1.48;0.60;;;9.40;99.90;;;;;;5037341;28;20041;-85
2021/12/19 01:05:31;;;;;;;2.08;0.50;;;8.70;99.90;;;;;;5054374;28;20053;-85
2021/12/19 01:07:57;;;;;;;1.00;0.40;;;8.60;99.90;;;;;;5037083;28;20044;-86
2021/12/19 01:10:23;;;;;;;1.95;0.60;;;7.90;99.90;;;;;;5054140;28;20044;-85
2021/12/19 01:12:49;;;;;;;3.72;0.47;;;8.00;99.90;;;;;;5054976;28;20041;-85
2021/12/19 01:15:16;;;;;;;3.72;0.50;;;7.30;99.90;;;;;;5036445;28;20053;-85
2021/12/19 01:17:42;;;;;;;3.28;0.63;;;8.00;99.90;;;;;;5054032;28;20045;-84
2021/12/19 01:20:14;;;;;;;2.20;0.60;;;8.30;99.90;;;;;;5054939;28;20120;-84
2021/12/19 01:22:40;;;;;;;2.05;0.40;;;8.00;99.90;;;;;;5054118;28;20045;-85
2021/12/19 01:25:06;;;;;;;2.78;0.43;;;7.80;99.90;;;;;;5054730;28;20049;-84
2021/12/19 01:27:31;;;;;;;1.10;0.35;;;7.80;99.90;;;;;;5054285;28;20060;-84
2021/12/19 01:29:57;;;;;;;1.42;0.40;;;7.80;99.90;;;;;;5054162;28;20114;-85
2021/12/19 01:32:23;;;;;;;1.75;0.30;;;7.30;99.90;;;;;;5036535;28;20485;-84
2021/12/19 01:34:48;;;;;;;1.30;0.30;;;8.30;99.90;;;;;;5035941;28;20056;-85
2021/12/19 01:37:14;;;;;;;2.50;0.28;;;6.40;99.90;;;;;;5054484;28;20048;-85
2021/12/19 01:39:40;;;;;;;3.03;0.38;;;7.10;99.90;;;;;;5053619;28;20057;-85
2021/12/19 01:42:09;;;;;;;1.35;0.30;;;8.40;99.90;;;;;;5046810;28;20048;-85
2021/12/19 01:44:35;;;;;;;0.30;0.20;;;7.60;99.90;;;;;;5020206;28;20052;-86
2021/12/19 01:47:01;;;;;;;0.75;0.20;;;8.20;99.90;;;;;;5035490;28;20053;-85
2021/12/19 01:49:27;;;;;;;0.10;0.10;;;7.50;99.90;;;;;;5035828;28;20057;-86
2021/12/19 01:51:53;;;;;;;0.10;0.10;;;7.90;99.90;;;;;;5036074;28;20049;-83
2021/12/19 01:54:19;;;;;;;1.35;0.20;;;7.80;99.90;;;;;;5052405;28;20049;-86
2021/12/19 01:56:45;;;;;;;0.70;0.20;;;7.50;99.90;;;;;;5054096;28;20045;-85
2021/12/19 01:59:11;;;;;;;0.10;0.10;;;7.70;99.90;;;;;;5053025;28;20060;-85
2021/12/19 02:01:55;;;;;;;2.92;0.20;;;7.70;99.90;;;;;;5036228;28;20060;-85
2021/12/19 02:04:23;;;;;;;1.25;0.20;;;7.50;99.90;;;;;;5035652;28;20118;-86
2021/12/19 02:06:49;;;;;;;1.83;0.17;;;7.60;99.90;;;;;;5035608;28;20516;-86
2021/12/19 02:09:17;;;;;;;4.05;0.20;;;7.90;99.90;;;;;;5034887;28;20051;-85
2021/12/19 02:11:43;;;;;;;2.17;0.30;;;7.50;99.90;;;;;;5035639;28;20044;-86
2021/12/19 02:14:10;;;;;;;0.47;0.20;;;8.30;99.90;;;;;;5035249;28;20049;-85
2021/12/19 02:16:39;;;;;;;1.92;0.20;;;7.70;99.90;;;;;;5035670;28;20132;-86
2021/12/19 02:19:06;;;;;;;1.73;0.30;;;7.80;99.90;;;;;;5053784;28;20100;-86
2021/12/19 02:21:32;;;;;;;1.85;0.30;;;8.30;99.90;;;;;;5035310;28;20076;-86
2021/12/19 02:23:59;;;;;;;2.17;0.20;;;7.80;99.90;;;;;;5035108;28;20049;-86
2021/12/19 02:26:25;;;;;;;1.27;0.30;;;7.70;99.90;;;;;;5035385;28;20146;-86
2021/12/19 02:28:51;;;;;;;1.25;0.38;;;7.90;99.90;;;;;;5053175;28;20041;-86
2021/12/19 02:31:16;;;;;;;2.15;0.30;;;7.50;99.90;;;;;;5035207;28;20607;-86
2021/12/19 02:33:54;;;;;;;0.40;0.30;;;8.10;99.90;;;;;;5052619;28;20396;-86
2021/12/19 02:36:25;;;;;;;4.03;0.68;;;8.10;99.90;;;;;;5053313;28;20045;-86
2021/12/19 02:49:48;;;;;;;1.30;0.30;;;7.20;99.90;;;;;;5053230;28;20107;-84
2021/12/19 02:52:16;;;;;;;0.60;0.30;;;7.90;99.90;;;;;;5035050;28;20135;-86
2021/12/19 02:54:42;;;;;;;0.20;0.10;;;7.60;99.90;;;;;;5035374;28;20123;-86
2021/12/19 02:57:08;;;;;;;4.00;0.30;;;8.10;99.90;;;;;;5053334;28;20084;-86
2021/12/19 02:59:34;;;;;;;0.40;0.30;;;7.80;99.90;;;;;;5053499;28;20401;-85
2021/12/19 03:02:00;;;;;;;3.92;0.85;;;8.00;99.90;;;;;;5052697;28;20048;-85
2021/12/19 03:04:26;;;;;;;4.15;0.70;;;7.40;99.90;;;;;;5018160;28;20509;-86
2021/12/19 03:06:52;;;;;;;1.30;0.70;;;8.30;99.90;;;;;;5035299;28;20056;-86
2021/12/19 03:12:35;;;;;;;2.67;0.85;;;7.60;99.90;;;;;;4990944;28;20077;-86
2021/12/19 03:18:01;;;;;;;1.35;0.30;;;7.30;99.90;;;;;;4975090;28;20101;-86
2021/12/19 03:20:30;;;;;;;5.45;0.90;;;7.40;99.90;;;;;;4990941;28;20142;-85
2021/12/19 03:22:58;;;;;;;1.85;0.57;;;7.30;99.90;;;;;;4969033;28;20046;-86
2021/12/19 03:25:24;;;;;;;1.25;0.50;;;7.00;99.90;;;;;;4974911;28;20073;-85
2021/12/19 03:27:50;;;;;;;3.78;0.70;;;7.60;99.90;;;;;;4974930;28;20573;-86
2021/12/19 03:30:16;;;;;;;1.23;0.50;;;7.50;99.90;;;;;;4991401;28;20137;-85
2021/12/19 03:32:42;;;;;;;5.63;0.85;;;8.20;99.90;;;;;;4974182;28;20050;-86
2021/12/19 03:35:08;;;;;;;4.32;0.52;;;8.30;99.90;;;;;;4968725;28;20081;-86
2021/12/19 03:37:34;;;;;;;2.55;0.40;;;7.60;99.90;;;;;;4974472;28;20050;-83
2021/12/19 03:40:23;;;;;;;7.22;0.90;;;7.90;99.90;;;;;;4990973;28;20166;-85
2021/12/19 03:42:51;;;;;;;2.90;0.60;;;8.30;99.90;;;;;;4990268;28;20098;-85
2021/12/19 03:45:21;;;;;;;2.38;0.50;;;7.40;99.90;;;;;;4991015;28;20065;-86
2021/12/19 03:47:47;;;;;;;4.20;0.60;;;7.30;99.90;;;;;;4997752;28;20053;-84
2021/12/19 03:50:19;;;;;;;3.35;0.93;;;7.50;99.90;;;;;;5044115;28;20053;-85
2021/12/19 03:52:45;;;;;;;5.88;0.65;;;7.90;99.90;;;;;;5027499;28;20048;-86
2021/12/19 03:55:11;;;;;;;4.68;0.82;;;7.80;99.90;;;;;;5022884;28;20226;-85
2021/12/19 03:57:37;;;;;;;4.43;1.10;;;7.40;99.90;;;;;;5027411;28;20812;-85
2021/12/19 04:00:10;;;;;;;4.68;0.90;;;7.30;99.90;;;;;;5030540;28;20131;-85
2021/12/19 04:02:36;;;;;;;14.45;2.88;;;7.50;99.90;;;;;;5039743;28;20042;-86
2021/12/19 04:05:02;;;;;;;5.22;1.45;;;8.30;99.90;;;;;;5040512;28;20049;-83
2021/12/19 04:07:29;;;;;;;4.82;1.23;;;7.50;99.90;;;;;;5033586;28;20068;-86
2021/12/19 04:09:55;;;;;;;13.15;1.60;;;8.10;99.90;;;;;;5043556;28;20041;-85
2021/12/19 04:12:24;;;;;;;11.43;1.80;;;8.30;99.90;;;;;;5018415;28;20092;-86
2021/12/19 04:14:50;;;;;;;9.00;1.35;;;8.10;99.90;;;;;;5025648;28;20089;-86
2021/12/19 04:17:16;;;;;;;6.60;1.52;;;8.10;99.90;;;;;;5042271;28;20076;-85
2021/12/19 04:19:42;;;;;;;5.65;2.17;;;7.80;99.90;;;;;;5044288;28;20083;-85
2021/12/19 04:22:08;;;;;;;12.38;2.55;;;7.70;99.90;;;;;;5016972;28;20391;-85
2021/12/19 04:24:34;;;;;;;12.40;2.80;;;7.70;99.90;;;;;;5024122;28;20056;-86
2021/12/19 04:27:00;;;;;;;11.07;2.22;;;8.30;99.90;;;;;;5043399;28;20111;-86
2021/12/19 04:29:26;;;;;;;11.45;2.42;;;6.40;99.90;;;;;;5024856;28;20063;-86
2021/12/19 04:31:53;;;;;;;14.15;3.13;;;8.40;99.90;;;;;;5027649;28;20109;-86
2021/12/19 04:34:20;;;;;;;10.15;2.70;;;8.30;99.90;;;;;;5047679;28;20053;-86
2021/12/19 04:36:50;;;;;;;8.10;2.63;;;7.50;99.90;;;;;;5045738;28;20051;-87
2021/12/19 04:55:23;;;;;;;17.77;4.05;;;7.90;99.90;;;;;;4988783;28;20050;-86
2021/12/19 04:58:12;;;;;;;16.85;4.90;;;7.60;99.90;;;;;;5005491;28;20414;-85
2021/12/19 05:00:43;;;;;;;12.73;4.00;;;8.00;99.90;;;;;;5006092;28;20048;-84
2021/12/19 05:03:27;;;;;;;15.07;4.40;;;7.80;99.90;;;;;;4992453;28;20050;-86
2021/12/19 05:06:08;;;;;;;7.65;4.03;;;7.70;99.90;;;;;;5002199;28;20519;-86
2021/12/19 05:14:23;;;;;;;16.05;5.85;;;7.40;99.90;;;;;;4974727;28;20476;-85
2021/12/19 05:16:51;;;;;;;17.05;5.05;;;7.90;99.90;;;;;;4969009;28;20050;-87
2021/12/19 05:19:30;;;;;;;15.23;4.40;;;8.00;99.90;;;;;;4976666;28;20051;-84
2021/12/19 05:22:00;;;;;;;14.02;4.10;;;7.60;99.90;;;;;;4959716;28;20043;-85
2021/12/19 05:24:47;;;;;;;20.92;3.45;;;8.30;99.90;;;;;;4974159;28;20047;-86
2021/12/19 05:27:12;;;;;;;8.70;3.50;;;8.00;99.90;;;;;;4969014;28;20060;-86
2021/12/19 05:29:39;;;;;;;11.43;3.80;;;8.30;99.90;;;;;;4966671;28;20415;-86
2021/12/19 05:32:06;;;;;;;14.73;3.22;;;8.10;99.90;;;;;;5003111;28;20050;-86
2021/12/19 05:34:32;;;;;;;14.00;3.70;;;7.50;99.90;;;;;;5019871;28;20136;-86
2021/12/19 05:45:12;;;;;;;13.27;3.00;;;7.90;99.90;;;;;;5012721;28;20110;-85
2021/12/19 05:47:39;;;;;;;13.25;3.45;;;8.00;99.90;;;;;;5034883;28;20053;-86
2021/12/19 05:50:06;;;;;;;14.05;3.22;;;7.90;99.90;;;;;;5045466;28;20048;-85
2021/12/19 05:52:31;;;;;;;8.18;2.60;;;7.60;99.90;;;;;;5054018;28;20041;-86
2021/12/19 05:54:57;;;;;;;11.90;3.28;;;7.50;99.90;;;;;;5011492;28;20056;-85
2021/12/19 05:57:23;;;;;;;9.10;3.25;;;8.20;99.90;;;;;;5021358;28;20401;-85
2021/12/19 05:59:50;;;;;;;15.93;3.88;;;7.60;99.90;;;;;;5027556;28;20053;-86
2021/12/19 06:02:16;;;;;;;12.70;3.33;;;7.70;99.90;;;;;;5052826;28;20049;-86
2021/12/19 06:04:42;;;;;;;8.98;3.05;;;8.60;99.90;;;;;;5044992;28;21726;-85
2021/12/19 06:07:08;;;;;;;13.55;3.55;;;6.90;99.90;;;;;;5027710;28;20482;-86
2021/12/19 06:09:34;;;;;;;15.10;3.08;;;8.50;99.90;;;;;;5052180;28;20045;-86
2021/12/19 06:12:00;;;;;;;9.82;2.83;;;7.70;99.90;;;;;;5053545;28;20056;-86
2021/12/19 06:14:31;;;;;;;10.73;2.90;;;8.20;99.90;;;;;;5028345;28;20402;-86
2021/12/19 06:16:57;;;;;;;11.48;2.22;;;7.90;99.90;;;;;;5027484;28;20061;-86
2021/12/19 06:19:23;;;;;;;6.30;2.42;;;7.60;99.90;;;;;;5035158;28;20444;-86
2021/12/19 06:21:49;;;;;;;6.25;1.55;;;7.60;99.90;;;;;;5035550;28;20056;-86
2021/12/19 06:24:14;;;;;;;7.03;1.58;;;7.60;99.90;;;;;;5040404;28;20115;-85
2021/12/19 06:26:40;;;;;;;7.28;1.67;;;7.70;99.90;;;;;;5047036;28;20489;-86
2021/12/19 06:29:06;;;;;;;5.90;0.90;;;7.50;99.90;;;;;;5043118;28;20053;-86
2021/12/19 06:31:32;;;;;;;5.05;0.80;;;7.90;99.90;;;;;;5033047;28;20049;-86
2021/12/19 06:33:57;;;;;;;8.35;1.25;;;7.60;99.90;;;;;;5018748;28;20052;-86
2021/12/19 06:36:23;;;;;;;9.55;1.15;;;7.60;99.90;;;;;;5034689;28;20045;-85
2021/12/19 06:38:49;;;;;;;6.78;1.13;;;7.60;99.90;;;;;;5042612;28;20057;-86
2021/12/19 06:41:15;;;;;;;12.85;1.92;;;8.00;99.90;;;;;;5048246;28;20045;-85
2021/12/19 06:43:41;;;;;;;6.38;1.52;;;7.70;99.90;;;;;;5034865;28;20040;-85
2021/12/19 06:46:06;;;;;;;6.90;1.17;;;7.80;99.90;;;;;;5018656;28;20272;-86
2021/12/19 06:48:32;;;;;;;10.85;1.50;;;8.10;99.90;;;;;;5049315;28;20048;-88
2021/12/19 06:50:58;;;;;;;12.57;1.25;;;7.90;99.90;;;;;;5043804;28;20089;-86
2021/12/19 06:53:24;;;;;;;8.18;1.15;;;7.80;99.90;;;;;;5028361;28;20132;-86
2021/12/19 06:55:49;;;;;;;6.43;1.63;;;7.40;99.90;;;;;;5032531;28;20235;-86
2021/12/19 06:58:15;;;;;;;7.45;1.52;;;7.80;99.90;;;;;;5034332;28;20048;-86
2021/12/19 07:00:41;;;;;;;11.05;1.25;;;8.10;99.90;;;;;;5033513;28;20064;-85
2021/12/19 07:03:09;;;;;;;10.50;1.70;;;7.40;99.90;;;;;;5045000;28;20118;-85
2021/12/19 07:05:35;;;;;;;5.57;1.48;;;7.50;99.90;;;;;;5053181;28;20401;-86
2021/12/19 07:08:01;;;;;;;6.30;1.48;;;8.00;99.90;;;;;;5052697;28;20045;-87
2021/12/19 07:10:27;;;;;;;8.98;1.88;;;7.50;99.90;;;;;;5024290;28;20057;-87
2021/12/19 07:12:52;;;;;;;10.55;1.20;;;7.60;99.90;;;;;;5033629;28;20513;-88
2021/12/19 07:15:18;;;;;;;13.15;1.88;;;8.10;99.90;;;;;;5031015;28;20144;-86
2021/12/19 07:17:44;;;;;;;8.20;1.83;;;7.90;99.90;;;;;;5049187;28;20052;-88
2021/12/19 07:20:11;;;;;;;7.72;1.15;;;7.10;99.90;;;;;;5045132;28;20053;-85
2021/12/19 07:22:37;;;;;;;10.18;1.40;;;7.60;99.90;;;;;;5052537;28;20045;-86
2021/12/19 07:25:04;;;;;;;9.95;1.50;;;7.60;99.90;;;;;;5034294;28;20079;-85
2021/12/19 07:27:29;;;;;;;10.10;1.30;;;7.50;99.90;;;;;;5044324;28;20235;-86
2021/12/19 07:29:57;;;;;;;12.85;1.55;;;8.30;99.90;;;;;;5021653;28;20046;-85
2021/12/19 07:32:23;;;;;;;7.38;1.52;;;7.10;99.90;;;;;;5026453;28;20044;-86
2021/12/19 07:34:50;;;;;;;5.50;0.90;;;6.30;99.90;;;;;;5048150;28;20072;-86
2021/12/19 07:37:18;;;;;;;5.05;1.45;;;7.50;99.90;;;;;;5032202;28;20080;-92
2021/12/19 07:40:21;;;;;;;6.70;1.38;;;7.50;99.90;;;;;;5034466;28;20091;-88
2021/12/19 07:42:52;;;;;;;4.18;1.10;;;7.60;99.90;;;;;;5026022;28;20497;-89
2021/12/19 07:45:21;;;;;;;8.43;1.23;;;7.40;99.90;;;;;;5017531;28;20080;-88
2021/12/19 07:47:47;;;;;;;8.93;1.38;;;8.10;99.90;;;;;;5045795;28;20452;-89
2021/12/19 07:50:13;;;;;;;9.70;1.50;;;7.60;99.90;;;;;;5044075;28;20049;-88
2021/12/19 07:52:40;;;;;;;11.05;1.55;;;8.10;99.90;;;;;;5024585;28;20056;-86
2021/12/19 07:55:06;;;;;;;8.35;1.50;;;8.10;99.90;;;;;;5050627;28;20095;-86
2021/12/19 07:57:37;;;;;;;7.60;1.50;;;7.60;99.90;;;;;;5043088;28;20056;-87
2021/12/19 08:00:05;;;;;;;15.73;2.17;;;7.60;99.90;;;;;;5035479;28;20445;-82
2021/12/19 08:02:30;;;;;;;10.65;1.38;;;7.60;99.90;;;;;;5046681;28;20128;-82
2021/12/19 08:04:56;;;;;;;7.20;1.10;;;8.20;99.90;;;;;;5041953;28;20132;-86
2021/12/19 08:07:24;;;;;;;9.30;1.70;;;7.80;99.90;;;;;;5039891;28;20123;-83
2021/12/19 08:12:40;;;;;;;7.53;1.65;;;8.40;99.90;;;;;;5049205;28;20049;-89
2021/12/19 08:15:08;;;;;;;7.07;1.15;;;8.40;99.90;;;;;;5050151;28;20045;-86
2021/12/19 08:17:34;;;;;;;6.72;1.02;;;7.60;99.90;;;;;;5025549;28;20049;-88
2021/12/19 08:20:11;;;;;;;5.15;1.08;;;7.50;99.90;;;;;;5042128;28;20048;-89
2021/12/19 08:22:36;;;;;;;20.35;1.67;;;7.70;99.90;;;;;;5050312;28;20139;-84
2021/12/19 08:25:04;;;;;;;4.57;1.20;;;7.80;99.90;;;;;;5042479;28;20053;-87
2021/12/19 08:27:34;;;;;;;4.38;1.17;;;7.70;99.90;;;;;;5051088;28;20578;-84
2021/12/19 08:30:00;;;;;;;10.48;1.20;;;7.80;99.90;;;;;;5044138;28;20041;-82
2021/12/19 08:32:26;;;;;;;7.63;1.08;;;8.60;99.90;;;;;;5034360;28;20062;-84
2021/12/19 08:34:52;;;;;;;9.23;1.40;;;7.90;99.90;;;;;;5036633;28;20444;-85
2021/12/19 08:37:18;;;;;;;7.13;1.58;;;7.70;99.90;;;;;;5040049;28;20053;-89
2021/12/19 08:39:45;;;;;;;12.13;1.35;;;8.10;99.90;;;;;;5040495;28;20386;-88
2021/12/19 08:42:11;;;;;;;6.07;0.95;;;8.50;99.90;;;;;;5051431;28;20049;-86
2021/12/19 08:44:37;;;;;;;2.80;0.88;;;7.40;99.90;;;;;;5043135;28;20049;-85
2021/12/19 08:47:04;;;;;;;11.02;1.75;;;7.80;99.90;;;;;;5033591;28;20481;-88
2021/12/19 08:49:30;;;;;;;11.68;1.00;;;7.80;99.90;;;;;;5050194;28;20056;-86
2021/12/19 08:51:56;;;;;;;13.50;2.67;;;8.50;99.90;;;;;;5049134;28;20095;-84
2021/12/19 08:54:22;;;;;;;6.28;0.93;;;8.50;99.90;;;;;;5044036;28;20041;-88
2021/12/19 08:56:51;;;;;;;11.90;1.27;;;8.20;99.90;;;;;;5041696;28;20057;-90
2021/12/19 08:59:17;;;;;;;10.00;1.50;;;7.80;99.90;;;;;;5049366;28;20140;-91
2021/12/19 09:01:43;;;;;;;12.02;1.88;;;8.30;99.90;;;;;;5042612;28;20084;-89
2021/12/19 09:04:09;;;;;;;14.95;1.77;;;7.70;99.90;;;;;;5043126;28;20374;-92
2021/12/19 09:06:35;;;;;;;8.07;1.40;;;8.30;99.90;;;;;;5051166;28;20059;-92
2021/12/19 09:09:04;;;;;;;5.45;1.15;;;7.90;99.90;;;;;;5042442;28;20068;-92
2021/12/19 09:11:31;;;;;;;9.30;1.30;;;7.80;99.90;;;;;;5036934;28;20049;-91
2021/12/19 09:13:57;;;;;;;11.75;1.77;;;7.40;99.90;;;;;;5047006;28;20121;-89
2021/12/19 09:16:23;;;;;;;6.43;1.50;;;8.40;99.90;;;;;;5030527;28;20049;-90
2021/12/19 09:18:49;;;;;;;8.77;1.33;;;8.00;99.90;;;;;;5051380;28;20061;-86
2021/12/19 09:21:14;;;;;;;7.72;1.58;;;8.40;99.90;;;;;;5029540;28;20547;-90
2021/12/19 09:23:40;;;;;;;12.23;1.10;;;8.80;99.90;;;;;;5052533;28;20151;-83
2021/12/19 09:26:07;;;;;;;6.57;1.00;;;8.10;99.90;;;;;;5048978;28;20053;-84
2021/12/19 09:28:35;;;;;;;7.25;1.23;;;8.00;99.90;;;;;;5023547;28;20085;-87
2021/12/19 09:31:01;;;;;;;10.85;1.02;;;8.70;99.90;;;;;;5028039;28;20115;-90
2021/12/19 09:33:26;;;;;;;9.30;1.05;;;8.00;99.90;;;;;;5052776;28;20053;-88
2021/12/19 09:35:52;;;;;;;8.07;1.25;;;8.50;99.90;;;;;;5046815;28;20061;-83
2021/12/19 09:38:20;;;;;;;5.55;0.68;;;8.00;99.90;;;;;;5057785;28;20075;-93
2021/12/19 09:40:46;;;;;;;3.22;0.75;;;8.00;99.90;;;;;;5053122;28;20057;-85
2021/12/19 09:45:59;;;;;;;7.95;1.10;;;8.10;99.90;;;;;;5043592;28;20059;-86
2021/12/19 09:48:29;;;;;;;3.95;0.75;;;8.50;99.90;;;;;;5021614;28;20124;-95
2021/12/19 09:50:55;;;;;;;9.02;1.70;;;8.60;99.90;;;;;;5055774;28;20136;-84
2021/12/19 09:53:21;;;;;;;12.18;1.38;;;8.10;99.90;;;;;;5043971;28;20056;-92
2021/12/19 09:55:46;;;;;;;8.82;1.30;;;8.10;99.90;;;;;;5025483;28;20080;-89
2021/12/19 09:58:12;;;;;;;7.95;1.25;;;8.70;99.90;;;;;;5039448;28;20493;-92
2021/12/19 10:00:38;;;;;;;12.77;1.02;;;8.10;99.90;;;;;;5045960;28;20107;-87
2021/12/19 10:03:04;;;;;;;12.23;1.15;;;8.10;99.90;;;;;;5027744;28;20055;-85
2021/12/19 10:05:29;;;;;;;12.25;1.25;;;8.40;99.90;;;;;;5043604;28;20053;-84
2021/12/19 10:08:01;;;;;;;8.43;0.90;;;8.70;99.90;;;;;;5042007;28;20056;-88
2021/12/19 10:10:45;;;;;;;10.95;0.95;;;8.90;99.90;;;;;;5033093;28;20053;-88
2021/12/19 10:13:12;;;;;;;7.53;0.80;;;8.30;99.90;;;;;;5041284;28;20053;-87
2021/12/19 10:15:39;;;;;;;8.02;1.05;;;8.50;99.90;;;;;;5045123;28;20088;-88
2021/12/19 10:18:16;;;;;;;18.05;1.63;;;8.80;99.90;;;;;;5028073;28;20045;-89
2021/12/19 10:20:53;;;;;;;10.05;1.73;;;8.50;99.90;;;;;;5026183;28;20072;-84
2021/12/19 10:23:30;;;;;;;9.38;1.05;;;8.20;99.90;;;;;;5026632;28;20053;-83
2021/12/19 10:26:10;;;;;;;12.60;1.35;;;8.10;99.90;;;;;;5040440;28;20401;-84
2021/12/19 10:28:54;;;;;;;8.88;1.38;;;8.10;99.90;;;;;;5026635;28;20049;-86
2021/12/19 10:31:20;;;;;;;4.38;0.98;;;8.10;99.90;;;;;;5043271;28;20095;-87
2021/12/19 10:33:47;;;;;;;8.07;0.80;;;9.10;99.90;;;;;;5026360;28;20556;-88
2021/12/19 10:36:16;;;;;;;7.05;1.48;;;8.60;99.90;;;;;;5029310;28;20085;-88
2021/12/19 10:38:50;;;;;;;11.52;1.85;;;8.30;99.90;;;;;;5041795;28;20054;-89
2021/12/19 10:41:20;;;;;;;17.95;2.97;;;8.30;99.90;;;;;;5045051;28;20128;-90
2021/12/19 10:46:42;;;;;;;18.08;1.02;;;8.30;99.90;;;;;;4998643;28;20038;-85
2021/12/19 10:49:33;;;;;;;11.25;1.30;;;8.60;99.90;;;;;;4992515;28;20046;-87
2021/12/19 10:52:04;;;;;;;11.73;1.20;;;9.20;99.90;;;;;;4999520;28;20121;-88
2021/12/19 10:54:30;;;;;;;10.93;1.42;;;8.40;99.90;;;;;;4993335;28;20095;-90
2021/12/19 10:57:07;;;;;;;15.15;1.77;;;8.40;99.90;;;;;;4991395;28;20038;-85
2021/12/19 10:59:35;;;;;;;9.70;1.88;;;8.40;99.90;;;;;;5003728;28;20061;-84
2021/12/19 11:02:01;;;;;;;12.40;1.25;;;8.50;99.90;;;;;;4997209;28;20548;-91
2021/12/19 11:04:27;;;;;;;11.75;1.20;;;8.50;99.90;;;;;;4988682;28;20058;-89
2021/12/19 11:06:58;;;;;;;13.90;1.20;;;8.50;99.90;;;;;;5024758;28;20054;-89
2021/12/19 11:09:34;;;;;;;9.05;1.73;;;8.50;99.90;;;;;;5015358;28;20064;-84
2021/12/19 11:12:13;;;;;;;15.07;2.17;;;8.50;99.90;;;;;;4995876;28;20061;-88
2021/12/19 11:14:43;;;;;;;21.15;2.13;;;8.40;99.90;;;;;;4995642;28;20062;-85
2021/12/19 11:17:26;;;;;;;14.18;1.55;;;8.40;99.90;;;;;;4979081;28;20490;-87
2021/12/19 11:19:55;;;;;;;22.85;2.35;;;8.50;99.90;;;;;;4996175;28;20140;-86
2021/12/19 11:22:25;;;;;;;11.15;1.90;;;8.70;99.90;;;;;;4980723;28;20069;-91
2021/12/19 11:25:00;;;;;;;20.95;1.80;;;8.50;99.90;;;;;;5002779;28;20065;-88
2021/12/19 11:27:27;;;;;;;17.30;1.95;;;8.50;99.90;;;;;;5034905;28;20519;-89
2021/12/19 11:29:55;;;;;;;12.32;2.38;;;8.70;99.90;;;;;;5048688;28;20065;-86
2021/12/19 11:33:04;;;;;;;11.07;1.60;;;8.60;99.90;;;;;;5053176;28;20556;-85
2021/12/19 11:35:36;;;;;;;20.05;2.17;;;8.60;99.90;;;;;;5053459;28;20505;-88
2021/12/19 11:38:08;;;;;;;18.35;2.03;;;8.90;99.90;;;;;;5034150;28;20102;-85
2021/12/19 11:40:36;;;;;;;21.20;2.05;;;8.70;99.90;;;;;;5034259;28;20060;-83
2021/12/19 11:43:08;;;;;;;12.20;1.90;;;9.30;99.90;;;;;;5015487;28;20465;-82
2021/12/19 11:45:54;;;;;;;11.77;1.35;;;8.60;99.90;;;;;;5019228;28;20145;-86
2021/12/19 11:48:31;;;;;;;13.60;2.20;;;9.30;99.90;;;;;;5033662;28;20056;-89
2021/12/19 11:51:02;;;;;;;13.85;2.30;;;9.30;99.90;;;;;;5052941;28;20181;-87
2021/12/19 11:53:41;;;;;;;14.35;1.85;;;8.80;99.90;;;;;;5034345;28;20135;-87
2021/12/19 11:56:18;;;;;;;14.98;1.73;;;8.90;99.90;;;;;;5015082;28;20061;-88
2021/12/19 11:58:49;;;;;;;15.10;2.20;;;8.70;99.90;;;;;;5032933;28;20413;-85
2021/12/19 12:01:30;;;;;;;15.80;1.95;;;8.80;99.90;;;;;;5015366;28;20046;-84
2021/12/19 12:04:13;;;;;;;16.67;1.90;;;7.90;99.90;;;;;;5015475;28;20061;-84
2021/12/19 12:06:41;;;;;;;10.35;1.95;;;9.50;99.90;;;;;;5015004;28;20118;-85
2021/12/19 12:09:20;;;;;;;9.85;1.23;;;9.30;99.90;;;;;;5032541;28;20553;-88
2021/12/19 12:12:03;;;;;;;9.20;1.38;;;8.80;99.90;;;;;;5032796;28;20049;-86
2021/12/19 12:14:34;;;;;;;7.40;1.63;;;9.00;99.90;;;;;;5032837;28;20097;-89
2021/12/19 12:17:08;;;;;;;8.88;1.17;;;8.90;99.90;;;;;;5032594;28;20117;-88
2021/12/19 12:19:40;;;;;;;8.98;0.93;;;9.40;99.90;;;;;;5032936;28;20076;-86
2021/12/19 12:22:24;;;;;;;13.10;1.40;;;8.90;99.90;;;;;;5020541;28;20053;-88
2021/12/19 12:25:02;;;;;;;9.43;1.48;;;9.40;99.90;;;;;;5015129;28;20080;-88
2021/12/19 12:27:40;;;;;;;6.95;1.17;;;8.70;99.90;;;;;;5019343;28;20084;-86
2021/12/19 12:30:12;;;;;;;13.20;1.35;;;8.70;99.90;;;;;;5018166;28;20092;-87
2021/12/19 12:32:39;;;;;;;13.23;1.20;;;8.80;99.90;;;;;;5034524;28;20560;-88
2021/12/19 12:35:11;;;;;;;11.05;1.38;;;8.80;99.90;;;;;;5020355;28;20050;-86
2021/12/19 12:37:37;;;;;;;5.25;0.82;;;8.60;99.90;;;;;;5032469;28;20049;-87
2021/12/19 12:40:22;;;;;;;17.10;1.98;;;9.00;99.90;;;;;;5014722;28;20076;-84
2021/12/19 12:43:05;;;;;;;10.68;1.08;;;8.70;99.90;;;;;;5014773;28;20517;-85
2021/12/19 12:46:01;;;;;;;6.53;1.05;;;8.70;99.90;;;;;;5032694;28;20140;-86
2021/12/19 12:48:39;;;;;;;7.43;0.90;;;8.70;99.90;;;;;;5037251;28;20164;-85
2021/12/19 12:51:12;;;;;;;8.18;1.13;;;8.70;99.90;;;;;;5067603;28;20113;-87
2021/12/19 12:53:43;;;;;;;8.43;1.02;;;8.40;99.90;;;;;;5053701;28;20059;-87
2021/12/19 12:56:22;;;;;;;11.00;1.20;;;8.60;99.90;;;;;;5058051;28;20053;-86
2021/12/19 12:58:55;;;;;;;6.45;0.70;;;8.70;99.90;;;;;;5074537;28;20041;-89
2021/12/19 13:01:23;;;;;;;6.28;1.13;;;8.90;99.90;;;;;;5055569;28;20051;-89
2021/12/19 13:04:13;;;;;;;13.25;1.58;;;8.90;99.90;;;;;;5076184;28;20109;-88
2021/12/19 13:06:41;;;;;;;12.02;1.23;;;8.70;99.90;;;;;;5076163;28;20055;-87
2021/12/19 13:09:10;;;;;;;12.65;1.00;;;8.80;99.90;;;;;;5075977;28;20459;-88
2021/12/19 13:11:37;;;;;;;9.93;1.42;;;9.30;99.90;;;;;;5074799;28;20080;-88
2021/12/19 13:14:22;;;;;;;10.85;1.27;;;9.20;99.90;;;;;;5075902;28;20055;-87
2021/12/19 13:16:52;;;;;;;8.98;1.00;;;8.60;99.90;;;;;;5038045;28;20063;-89
2021/12/19 13:19:50;;;;;;;10.70;1.20;;;9.10;99.90;;;;;;5037866;28;20060;-89
2021/12/19 13:22:34;;;;;;;10.65;1.48;;;9.00;99.90;;;;;;4978746;28;20097;-86
2021/12/19 13:25:44;;;;;;;16.67;1.95;;;8.90;99.90;;;;;;4961472;28;20418;-88
2021/12/19 13:28:20;;;;;;;11.07;1.30;;;9.00;99.90;;;;;;4932150;29;20051;-88
2021/12/19 13:30:54;;;;;;;12.88;1.77;;;8.60;99.90;;;;;;4936017;29;20051;-87
2021/12/19 13:33:21;;;;;;;7.30;1.05;;;9.40;99.90;;;;;;4918400;29;20087;-89
2021/12/19 13:39:31;;;;;;;15.18;1.38;;;8.90;99.90;;;;;;5078349;22;20049;-89
2021/12/19 13:42:10;;;;;;;10.38;1.13;;;8.70;99.90;;;;;;5076460;28;20106;-89
2021/12/19 13:44:36;;;;;;;3.65;0.68;;;8.80;99.90;;;;;;5058126;28;20161;-87
2021/12/19 13:47:12;;;;;;;13.30;1.20;;;8.80;99.90;;;;;;5056415;28;20090;-91
2021/12/19 13:49:41;;;;;;;12.57;1.27;;;8.90;99.90;;;;;;5057683;28;20036;-86
2021/12/19 13:52:07;;;;;;;10.27;0.90;;;8.80;99.90;;;;;;5076295;28;20064;-89
2021/12/19 13:54:40;;;;;;;10.15;1.00;;;9.10;99.90;;;;;;5074846;28;20056;-87
2021/12/19 13:57:21;;;;;;;7.45;1.13;;;9.00;99.90;;;;;;5075550;28;20044;-87
2021/12/19 13:59:47;;;;;;;6.80;0.70;;;9.00;99.90;;;;;;5057046;28;20088;-91
2021/12/19 14:02:13;;;;;;;6.43;1.13;;;9.00;99.90;;;;;;5039941;28;20048;-89
2021/12/19 14:04:40;;;;;;;6.78;0.75;;;9.20;99.90;;;;;;5056916;28;20057;-88
2021/12/19 14:07:11;;;;;;;7.03;1.27;;;9.60;99.90;;;;;;5065670;28;20079;-84